Terminal Aerodrome Forecast
Issued by NWS Jacksonville, FL

Home | Current Version | Previous Version | Text Only | Print | Product List | Glossary On
Versions: 1 2 3 4 5 6 7 8 9 10 11 12
438
FTUS42 KJAX 271720
TAFSSI
TAF
KSSI 271720Z 2718/2818 07012G18KT P6SM BKN040 BKN080
     FM280100 05006KT P6SM SCT040 SCT080
     FM281200 04012KT P6SM VCSH BKN030 BKN060=

USA.gov is the U.S. government's official web portal to all federal, state and local government web resources and services.